D Hanis, Texas
Current Conditions -  °F | °C
As of 12:51 PM on Thursday 30 Oct 2014 (Local Time) from KHDO Reporting Station
Clear Clear  
Wind Chill: 75°   Ceiling: Unl
Heat Index: 75°   Visibility: 10mi
Dew Point: 62°   Wind: 5mph
Humidity: 64%   Direction: 130°SE
Pressure: 30.14"   Gusts: NA
Location:  29.3507°N, 99.3117°W
Report Text: KHDO 301751Z AUTO 13004KT 10SM CLR 24/17 A3014 RMK AO2 SLP194 T02390167 10239 20150 58010
Loading
Personal Weather Stations






























Interactive Weather Map New forecast layout! Learn more

10-Day Weather Forecast

Advertisements
Track Severe Weather on mobile